Latest Weather Observations for Wattamolla

IDN60901

Issued at 5:51 am EST Friday 26 April 2019 (issued every 10 minutes, with the page automatically refreshed every 10 minutes)

About weather observations | Map of Sydney area stations | Latest observations for Sydney area | Other Formats
Station Details ID: 066208 Name: WATTAMOLLA AWS Lat: -34.14 Lon: 151.12 Height: 44.0 m
Data from the previous 72 hours. | See also: Recent months at Wattamolla
Date/Time
EST
Temp
°C
App
Temp
°C
Dew
Point
°C
Rel
Hum
%
Delta-T
°C
Wind Press
QNH
hPa
Press
MSL
hPa
Rain since
9am
mm
Dir  Spd
km/h
Gust
km/h
Spd
kts
Gust
kts
26/05:30am - - - - - WNW 19 26 10 14 - - -
26/05:00am - - - - - NW 20 30 11 16 - - -
26/04:30am - - - - - WNW 6 11 3 6 - - -
26/04:00am - - - - - NW 6 11 3 6 - - -
26/03:30am - - - - - WNW 7 9 4 5 - - -
26/03:00am - - - - - NW 11 17 6 9 - - -
26/02:30am - - - - - NW 11 15 6 8 - - -
26/02:00am - - - - - NNW 15 19 8 10 - - -
26/01:30am - - - - - NW 9 11 5 6 - - -
26/01:00am - - - - - NNW 2 9 1 5 - - -
26/12:30am - - - - - NE 2 7 1 4 - - -
26/12:00am - - - - - WNW 7 13 4 7 - - -
 
Date/Time
EST
Temp
°C
App
Temp
°C
Dew
Point
°C
Rel
Hum
%
Delta-T
°C
Wind Press
QNH
hPa
Press
MSL
hPa
Rain since
9am
mm
Dir  Spd
km/h
Gust
km/h
Spd
kts
Gust
kts
25/11:30pm - - - - - N 11 15 6 8 - - -
25/11:00pm - - - - - N 17 17 9 9 - - -
25/10:30pm - - - - - NW 13 17 7 9 - - -
25/10:00pm - - - - - NW 13 17 7 9 - - -
25/09:30pm - - - - - NW 13 17 7 9 - - -
25/09:00pm - - - - - WNW 9 11 5 6 - - -
25/08:30pm - - - - - W 7 7 4 4 - - -
25/08:00pm - - - - - WNW 2 7 1 4 - - -
25/07:30pm - - - - - NW 9 11 5 6 - - -
25/07:00pm - - - - - WNW 2 7 1 4 - - -
25/06:30pm - - - - - NNW 7 9 4 5 - - -
25/06:00pm - - - - - NNE 7 11 4 6 - - -
25/05:30pm - - - - - ESE 6 9 3 5 - - -
25/05:00pm - - - - - SE 9 11 5 6 - - -
25/04:30pm - - - - - SSE 9 11 5 6 - - -
25/04:00pm - - - - - SSE 11 13 6 7 - - -
25/03:30pm - - - - - SSE 11 15 6 8 - - -
25/03:00pm - - - - - SSE 15 19 8 10 - - -
25/02:30pm - - - - - SSE 19 22 10 12 - - -
25/02:00pm - - - - - SSE 15 19 8 10 - - -
25/01:30pm - - - - - SSE 13 15 7 8 - - -
25/01:00pm - - - - - SSE 15 17 8 9 - - -
25/12:30pm - - - - - SSE 13 17 7 9 - - -
25/12:00pm - - - - - S 15 17 8 9 - - -
25/11:30am - - - - - S 17 22 9 12 - - -
25/11:00am - - - - - SSE 15 20 8 11 - - -
25/10:30am - - - - - S 15 20 8 11 - - -
25/10:00am - - - - - S 15 24 8 13 - - -
25/09:30am - - - - - SSE 15 24 8 13 - - -
25/09:00am - - - - - SSW 9 11 5 6 - - -
25/08:30am - - - - - WNW 11 15 6 8 - - -
25/08:00am - - - - - NW 13 15 7 8 - - -
25/07:30am - - - - - WNW 17 20 9 11 - - -
25/07:00am - - - - - WNW 20 24 11 13 - - -
25/06:30am - - - - - WNW 24 28 13 15 - - -
25/06:00am - - - - - WNW 24 30 13 16 - - -
25/05:30am - - - - - NW 22 28 12 15 - - -
25/05:00am - - - - - NW 19 26 10 14 - - -
25/04:30am - - - - - NW 19 26 10 14 - - -
25/04:00am - - - - - NW 17 22 9 12 - - -
25/03:30am - - - - - NNW 13 17 7 9 - - -
25/03:00am - - - - - NW 15 20 8 11 - - -
25/02:30am - - - - - NW 13 17 7 9 - - -
25/02:00am - - - - - NNW 11 17 6 9 - - -
25/01:30am - - - - - NNW 15 19 8 10 - - -
25/01:00am - - - - - NNW 13 17 7 9 - - -
25/12:30am - - - - - NNW 13 17 7 9 - - -
25/12:00am - - - - - NW 15 20 8 11 - - -
 
Date/Time
EST
Temp
°C
App
Temp
°C
Dew
Point
°C
Rel
Hum
%
Delta-T
°C
Wind Press
QNH
hPa
Press
MSL
hPa
Rain since
9am
mm
Dir  Spd
km/h
Gust
km/h
Spd
kts
Gust
kts
24/11:30pm - - - - - NW 13 17 7 9 - - -
24/11:00pm - - - - - NNW 9 13 5 7 - - -
24/10:30pm - - - - - NNW 15 19 8 10 - - -
24/10:00pm - - - - - NNW 17 20 9 11 - - -
24/09:30pm - - - - - NNW 17 20 9 11 - - -
24/09:00pm - - - - - NNW 15 19 8 10 - - -
24/08:30pm - - - - - NW 13 15 7 8 - - -
24/08:00pm - - - - - N 13 15 7 8 - - -
24/07:30pm - - - - - N 15 17 8 9 - - -
24/07:00pm - - - - - N 15 19 8 10 - - -
24/06:30pm - - - - - N 17 24 9 13 - - -
24/06:00pm - - - - - N 19 24 10 13 - - -
24/05:30pm - - - - - NNE 19 26 10 14 - - -
24/05:00pm - - - - - NNE 17 22 9 12 - - -
24/04:30pm - - - - - NNE 22 32 12 17 - - -
24/04:00pm - - - - - NNE 19 26 10 14 - - -
24/03:30pm - - - - - NE 22 35 12 19 - - -
24/03:00pm - - - - - NE 20 30 11 16 - - -
24/02:30pm - - - - - NE 19 26 10 14 - - -
24/02:00pm - - - - - NE 20 28 11 15 - - -
24/01:30pm - - - - - NE 19 26 10 14 - - -
24/01:00pm - - - - - ENE 19 26 10 14 - - -
24/12:30pm - - - - - N 15 22 8 12 - - -
24/12:00pm - - - - - NNW 13 24 7 13 - - -
24/11:30am - - - - - N 15 20 8 11 - - -
24/11:00am - - - - - NNW 15 22 8 12 - - -
24/10:30am - - - - - N 15 26 8 14 - - -
24/10:00am - - - - - NNW 13 17 7 9 - - -
24/09:30am - - - - - NNW 15 20 8 11 - - -
24/09:00am - - - - - NNW 11 17 6 9 - - -
24/08:30am - - - - - NW 9 13 5 7 - - -
24/08:00am - - - - - NW 9 13 5 7 - - -
24/07:30am - - - - - NW 11 13 6 7 - - -
24/07:00am - - - - - NW 17 17 9 9 - - -
24/06:30am - - - - - NW 17 19 9 10 - - -
24/06:00am - - - - - NW 15 17 8 9 - - -
24/05:30am - - - - - NW 17 19 9 10 - - -
24/05:00am - - - - - NNW 15 17 8 9 - - -
24/04:30am - - - - - NNW 15 17 8 9 - - -
24/04:00am - - - - - NNW 15 17 8 9 - - -
24/03:30am - - - - - NNW 15 15 8 8 - - -
24/03:00am - - - - - NNW 13 15 7 8 - - -
24/02:30am - - - - - NNW 13 15 7 8 - - -
24/02:00am - - - - - NNW 15 17 8 9 - - -
24/01:30am - - - - - N 15 19 8 10 - - -
24/01:00am - - - - - N 15 19 8 10 - - -
24/12:30am - - - - - N 15 19 8 10 - - -
24/12:00am - - - - - NNW 13 15 7 8 - - -
 
Date/Time
EST
Temp
°C
App
Temp
°C
Dew
Point
°C
Rel
Hum
%
Delta-T
°C
Wind Press
QNH
hPa
Press
MSL
hPa
Rain since
9am
mm
Dir  Spd
km/h
Gust
km/h
Spd
kts
Gust
kts
23/11:30pm - - - - - NNW 13 17 7 9 - - -
23/11:00pm - - - - - NNW 15 17 8 9 - - -
23/10:30pm - - - - - NNW 15 17 8 9 - - -
23/10:00pm - - - - - N 13 15 7 8 - - -
23/09:30pm - - - - - N 15 17 8 9 - - -
23/09:00pm - - - - - CALM 0 0 0 0 - - -
23/08:30pm - - - - - E 6 9 3 5 - - -
23/08:00pm - - - - - SSE 7 11 4 6 - - -
23/07:30pm - - - - - SE 15 17 8 9 - - -
23/07:00pm - - - - - SE 17 19 9 10 - - -
23/06:30pm - - - - - SE 19 20 10 11 - - -
23/06:00pm - - - - - SSE 17 20 9 11 - - -
23/05:30pm - - - - - SSE 19 26 10 14 - - -
23/05:00pm - - - - - SSE 19 26 10 14 - - -
23/04:30pm - - - - - SSE 20 26 11 14 - - -
23/04:00pm - - - - - SSE 17 20 9 11 - - -
23/03:30pm - - - - - SSE 19 24 10 13 - - -
23/03:00pm - - - - - SSE 19 24 10 13 - - -
23/02:30pm - - - - - SSE 19 22 10 12 - - -
23/02:00pm - - - - - SSE 17 19 9 10 - - -
23/01:30pm - - - - - SSE 17 19 9 10 - - -
23/01:00pm - - - - - SSE 17 22 9 12 - - -
23/12:30pm - - - - - SSE 17 20 9 11 - - -
23/12:00pm - - - - - S 19 24 10 13 - - -
23/11:30am - - - - - SSE 20 26 11 14 - - -
23/11:00am - - - - - S 22 26 12 14 - - -
23/10:30am - - - - - SSE 20 26 11 14 - - -
23/10:00am - - - - - S 20 24 11 13 - - -
23/09:30am - - - - - S 22 26 12 14 - - -
23/09:00am - - - - - S 24 28 13 15 - - -
23/08:30am - - - - - S 17 20 9 11 - - -
23/08:00am - - - - - S 19 24 10 13 - - -
23/07:30am - - - - - S 20 28 11 15 - - -
23/07:00am - - - - - S 15 20 8 11 - - -
23/06:30am - - - - - S 22 30 12 16 - - -
23/06:00am - - - - - S 24 33 13 18 - - -

Latest Capital City Observations: Canberra | Sydney | Melbourne | Brisbane | Adelaide | Perth | Hobart | Darwin

Other formats

Comma delimited format used in spreadsheet applications
http://www.bom.gov.au/fwo/IDN60901/IDN60901.95752.axf

JavaScript Object Notation format (JSON) in row-major order
http://www.bom.gov.au/fwo/IDN60901/IDN60901.95752.json

Data quality

Most of these data are generated automatically and are frequently updated. Quality checks on data are not normally performed. It is possible for incorrect values to appear. Refer to information at About Latest Weather Observations and please check the disclaimer before using these data.